Terminal Aerodrome Forecast
Issued by NWS Cleveland, OH

Home | Current Version | Previous Version | Text Only | Print | Product List | Glossary On
Versions: 1 2 3 4 5 6 7 8 9 10 11 12 13 14 15
000
FTUS41 KCLE 180002 CCA
TAFYNG
TAF COR
KYNG 180002Z 1800/1824 19008KT 6SM -TSRA OVC035CB
      TEMPO 1800/1801 2SM TSRA OVC010CB
     FM180100 19008KT P6SM VCSH OVC050
     FM180500 21008KT P6SM BKN070
     FM180800 22006KT P6SM BKN025
     FM181000 22006KT P6SM BKN015
      TEMPO 1810/1813 6SM BR OVC008
     FM181400 24010KT P6SM BKN025
     FM181600 24012G20KT P6SM BKN035
     FM182300 27010KT P6SM SCT035=

USA.gov is the U.S. government's official web portal to all federal, state and local government web resources and services.